Portada
METAR-TAF:

METAR-TAF

Aeroports :

Al-Riyad, Aràbia Saudita

latitud: 24-43N, longitud: 046-44E, altitud: 635 m

Observació

L'informe es va fer fa 58 minuts, a les 04:00 UTC
Vent 8 kt del Nord/Nord-Oest
Temperatura 20°C
Humitat 40%
Pressió 1016 hPa
Visibilitat: 7000 m
Cel clar

METAR: OERY 300400Z 34008KT 7000 SKC 20/06 Q1016 NOSIG

Hora: 07:58 (04:58 UTC)

Pronòstic

L'informe es va fer fa 5 hores i 58 minuts, a les 23:00 UTC
Pronòstic vàlid del 30 a les 00 UTC al 31 a les 06 UTC
Vent 12 kt del Nord/Nord-Est
Visibilitat: 6000 m
Temporalment
l' 30 a les 00 UTC al 30 a les 12 UTC
Visibilitat: 3000 m
Pols estès

TAF: OERY 292300Z 3000/3106 03012KT 6000 NSC TEMPO 3000/3012 3000 DU

Observacions i pronòstics meteorològics de més de 4000 aeroports (METAR i TAF).

Les estacions disponibles són els punts grocs i vermells al mapa.

Posi el ratolí al punt desitjat per veure el nom de l'estació.

Feu clic per veure les observacions i els pronòstics meteorològics.

Per canviar el mapa: feu clic els botons verds amb una creu de color negre per apropar; al botó verd amb un guió per allunyar la imatge; o en les fletxes verdes per a mapes adjacents.


METAR-TAF: